Time;durP1;ratioP1;P1;durP2;ratioP2;P2;SDS_P1;SDS_P2;PMS_P1;PMS_P2;Temp;Humidity;BMP_temperature;BMP_pressure;BME280_temperature;BME280_humidity;BME280_pressure;Samples;Min_cycle;Max_cycle;Signal;HPM_P1;HPM_P2
2023/12/25 00:00:54;;;;;;;0.22;0.22;;;18.10;47.40;;;;;;5172517;27;45260;-63
2023/12/25 00:03:22;;;;;;;0.32;0.32;;;18.10;48.00;;;;;;5172492;27;45401;-64
2023/12/25 00:05:49;;;;;;;0.20;0.20;;;18.10;47.40;;;;;;5172034;27;46330;-64
2023/12/25 00:08:16;;;;;;;0.32;0.32;;;18.10;47.40;;;;;;5172268;27;45425;-65
2023/12/25 00:10:43;;;;;;;0.35;0.35;;;18.10;47.40;;;;;;5172128;27;45319;-64
2023/12/25 00:13:10;;;;;;;0.32;0.32;;;18.10;47.40;;;;;;5172257;27;45291;-64
2023/12/25 00:15:36;;;;;;;0.40;0.30;;;18.00;47.40;;;;;;5171872;27;45423;-65
2023/12/25 00:18:03;;;;;;;0.30;0.30;;;18.00;47.50;;;;;;5171812;27;45314;-64
2023/12/25 00:20:32;;;;;;;0.30;0.30;;;18.00;47.50;;;;;;5169167;27;45373;-64
2023/12/25 00:22:58;;;;;;;0.25;0.25;;;18.00;47.60;;;;;;5160076;27;45467;-65
2023/12/25 00:25:25;;;;;;;0.20;0.20;;;18.00;47.60;;;;;;5150896;27;45333;-64
2023/12/25 00:27:53;;;;;;;0.30;0.30;;;18.00;47.60;;;;;;5150623;27;45324;-65
2023/12/25 00:30:19;;;;;;;0.38;0.30;;;18.00;47.60;;;;;;5150886;27;45403;-65
2023/12/25 00:32:46;;;;;;;0.25;0.25;;;18.00;47.60;;;;;;5148305;27;45353;-64
2023/12/25 00:35:13;;;;;;;0.30;0.30;;;17.90;48.20;;;;;;5150589;27;46457;-64
2023/12/25 00:37:46;;;;;;;0.20;0.20;;;17.90;47.60;;;;;;5150362;27;45279;-64
2023/12/25 00:40:14;;;;;;;0.35;0.35;;;17.90;47.60;;;;;;5150304;27;45507;-64
2023/12/25 00:42:40;;;;;;;0.30;0.30;;;17.90;47.60;;;;;;5150748;27;45626;-64
2023/12/25 00:45:07;;;;;;;0.20;0.20;;;17.90;47.60;;;;;;5150506;27;45275;-65
2023/12/25 00:47:34;;;;;;;0.20;0.20;;;17.90;47.60;;;;;;5150270;27;45317;-64
2023/12/25 00:50:03;;;;;;;0.40;0.40;;;17.90;47.70;;;;;;5159104;27;45273;-64
2023/12/25 00:52:30;;;;;;;0.90;0.38;;;17.90;47.60;;;;;;5171820;27;45471;-64
2023/12/25 00:54:58;;;;;;;0.40;0.40;;;17.80;47.60;;;;;;5171334;27;45585;-63
2023/12/25 00:57:26;;;;;;;0.30;0.22;;;17.80;47.60;;;;;;5171251;27;45592;-63
2023/12/25 00:59:53;;;;;;;0.20;0.20;;;17.80;48.20;;;;;;5171129;27;45372;-64
2023/12/25 01:02:19;;;;;;;0.35;0.30;;;17.80;47.50;;;;;;5171489;27;45351;-64
2023/12/25 01:04:46;;;;;;;0.10;0.10;;;17.80;47.60;;;;;;5171159;27;45433;-64
2023/12/25 01:07:13;;;;;;;0.10;0.10;;;17.70;47.60;;;;;;5170867;27;45337;-64
2023/12/25 01:09:41;;;;;;;0.25;0.25;;;17.70;47.60;;;;;;5167516;27;45461;-63
2023/12/25 01:12:10;;;;;;;0.28;0.20;;;17.70;47.60;;;;;;5171216;27;45445;-64
2023/12/25 01:14:37;;;;;;;0.22;0.20;;;17.70;47.70;;;;;;5171038;27;46714;-63
2023/12/25 01:17:04;;;;;;;0.35;0.35;;;17.70;47.70;;;;;;5170826;27;45239;-63
2023/12/25 01:19:31;;;;;;;0.20;0.20;;;17.70;47.70;;;;;;5171096;27;45346;-65
2023/12/25 01:21:58;;;;;;;0.32;0.32;;;17.70;47.70;;;;;;5167791;27;45418;-64
2023/12/25 01:24:25;;;;;;;0.30;0.30;;;17.60;47.70;;;;;;5149624;27;46400;-63
2023/12/25 01:26:51;;;;;;;1.13;0.32;;;17.60;47.70;;;;;;5149845;27;45318;-64
2023/12/25 01:29:20;;;;;;;0.20;0.20;;;17.60;47.70;;;;;;5149811;27;45309;-64
2023/12/25 01:31:46;;;;;;;0.30;0.30;;;17.60;47.70;;;;;;5150051;27;45563;-63
2023/12/25 01:34:13;;;;;;;0.28;0.28;;;17.60;47.80;;;;;;5149507;27;46390;-63
2023/12/25 01:36:40;;;;;;;0.35;0.35;;;17.60;47.80;;;;;;5149612;27;45426;-64
2023/12/25 01:39:07;;;;;;;0.30;0.20;;;17.60;47.80;;;;;;5149522;27;45279;-64
2023/12/25 01:41:34;;;;;;;0.70;0.30;;;17.60;47.80;;;;;;5149779;27;45523;-63
2023/12/25 01:44:01;;;;;;;0.20;0.20;;;17.50;47.70;;;;;;5149346;27;45417;-65
2023/12/25 01:46:29;;;;;;;0.40;0.40;;;17.50;47.70;;;;;;5149433;27;45425;-63
2023/12/25 01:48:55;;;;;;;0.22;0.22;;;17.50;47.70;;;;;;5149490;27;45183;-63
2023/12/25 01:51:23;;;;;;;0.30;0.30;;;17.50;47.70;;;;;;5170018;27;45461;-63
2023/12/25 01:53:50;;;;;;;0.43;0.38;;;17.50;47.70;;;;;;5170317;27;45300;-63
2023/12/25 01:56:17;;;;;;;0.20;0.20;;;17.50;47.70;;;;;;5170163;27;45447;-64
2023/12/25 01:58:43;;;;;;;0.30;0.30;;;17.50;48.40;;;;;;5170499;27;45458;-63
2023/12/25 02:01:10;;;;;;;0.40;0.30;;;17.50;47.70;;;;;;5170567;27;45215;-64
2023/12/25 02:03:38;;;;;;;0.57;0.30;;;17.40;47.80;;;;;;5170105;27;46371;-64
2023/12/25 02:06:05;;;;;;;0.30;0.30;;;17.40;47.80;;;;;;5170030;27;45353;-64
2023/12/25 02:08:32;;;;;;;0.17;0.17;;;17.40;47.80;;;;;;5170179;27;45309;-64
2023/12/25 02:11:03;;;;;;;0.30;0.28;;;17.40;47.90;;;;;;5170289;27;45253;-63
2023/12/25 02:13:30;;;;;;;0.38;0.22;;;17.40;47.90;;;;;;5169904;27;45258;-63
2023/12/25 02:15:56;;;;;;;0.52;0.30;;;17.40;47.90;;;;;;5169870;27;45504;-63
2023/12/25 02:18:23;;;;;;;0.43;0.43;;;17.40;47.90;;;;;;5170102;27;45362;-63
2023/12/25 02:20:51;;;;;;;0.20;0.20;;;17.40;47.90;;;;;;5169616;27;45303;-63
2023/12/25 02:23:17;;;;;;;0.25;0.25;;;17.40;47.90;;;;;;5154250;27;45294;-64
2023/12/25 02:25:52;;;;;;;0.28;0.28;;;17.30;47.90;;;;;;5148419;27;45333;-63
2023/12/25 02:28:19;;;;;;;0.30;0.30;;;17.30;47.90;;;;;;5148711;27;45332;-63
2023/12/25 02:30:46;;;;;;;0.22;0.22;;;17.30;47.90;;;;;;5148926;27;45471;-64
2023/12/25 02:33:12;;;;;;;0.38;0.30;;;17.30;47.90;;;;;;5148587;27;46376;-63
2023/12/25 02:35:39;;;;;;;0.20;0.20;;;17.30;47.90;;;;;;5148518;27;45315;-63
2023/12/25 02:38:06;;;;;;;0.20;0.20;;;17.30;48.00;;;;;;5148709;27;45240;-63
2023/12/25 02:40:35;;;;;;;0.28;0.28;;;17.30;47.90;;;;;;5148518;27;45255;-63
2023/12/25 02:43:03;;;;;;;0.30;0.30;;;17.30;47.80;;;;;;5148455;27;45389;-63
2023/12/25 02:45:30;;;;;;;0.20;0.20;;;17.30;47.90;;;;;;5148272;27;45398;-64
2023/12/25 02:47:57;;;;;;;0.30;0.30;;;17.20;47.80;;;;;;5148493;27;45184;-63
2023/12/25 02:50:24;;;;;;;0.30;0.30;;;17.20;47.80;;;;;;5157787;27;45262;-63
2023/12/25 02:52:51;;;;;;;0.35;0.32;;;17.20;47.80;;;;;;5169197;27;46560;-63
2023/12/25 02:55:17;;;;;;;0.20;0.20;;;17.20;47.90;;;;;;5169198;27;45456;-64
2023/12/25 02:57:44;;;;;;;0.47;0.45;;;17.20;47.90;;;;;;5169311;27;45403;-64
2023/12/25 03:00:14;;;;;;;1.45;0.30;;;17.20;47.90;;;;;;5169431;27;45345;-63
2023/12/25 03:02:41;;;;;;;0.15;0.15;;;17.20;47.90;;;;;;5169110;27;45373;-63
2023/12/25 03:05:08;;;;;;;0.28;0.28;;;17.20;47.80;;;;;;5169099;27;45509;-63
2023/12/25 03:07:35;;;;;;;0.40;0.40;;;17.10;47.80;;;;;;5169134;27;45385;-63
2023/12/25 03:10:02;;;;;;;0.30;0.30;;;17.10;47.80;;;;;;5169222;27;45630;-63
2023/12/25 03:12:29;;;;;;;0.20;0.20;;;17.10;47.80;;;;;;5169040;27;46519;-63
2023/12/25 03:14:56;;;;;;;0.40;0.40;;;17.10;47.90;;;;;;5169056;27;45392;-63
2023/12/25 03:17:24;;;;;;;0.40;0.40;;;17.10;47.90;;;;;;5169078;27;45299;-63
2023/12/25 03:19:51;;;;;;;0.28;0.28;;;17.10;47.90;;;;;;5169206;27;45136;-63
2023/12/25 03:22:18;;;;;;;0.30;0.30;;;17.10;47.90;;;;;;5162515;27;45246;-63
2023/12/25 03:24:45;;;;;;;0.25;0.25;;;17.10;48.00;;;;;;5147902;27;45339;-64
2023/12/25 03:27:12;;;;;;;0.30;0.30;;;17.10;48.00;;;;;;5148016;27;45345;-63
2023/12/25 03:29:38;;;;;;;0.40;0.40;;;17.10;47.90;;;;;;5148016;27;45447;-64
2023/12/25 03:32:06;;;;;;;0.20;0.20;;;17.00;47.90;;;;;;5147576;27;46393;-63
2023/12/25 03:34:45;;;;;;;0.35;0.35;;;17.00;47.90;;;;;;5147549;27;45310;-63
2023/12/25 03:37:12;;;;;;;0.35;0.35;;;17.00;48.00;;;;;;5147927;27;45513;-63
2023/12/25 03:39:38;;;;;;;0.43;0.30;;;17.00;48.00;;;;;;5147679;27;45343;-63
2023/12/25 03:42:06;;;;;;;0.20;0.20;;;17.00;47.90;;;;;;5147666;27;45346;-63
2023/12/25 03:44:32;;;;;;;0.30;0.30;;;16.90;47.90;;;;;;5147576;27;45272;-63
2023/12/25 03:46:59;;;;;;;0.50;0.50;;;16.90;47.90;;;;;;5147607;27;45295;-63
2023/12/25 03:49:26;;;;;;;0.30;0.30;;;16.90;47.90;;;;;;5151069;27;45305;-63
2023/12/25 03:51:55;;;;;;;0.30;0.30;;;16.90;47.90;;;;;;5168429;27;46401;-63
2023/12/25 03:54:22;;;;;;;0.30;0.30;;;16.90;48.00;;;;;;5168549;27;45336;-63
2023/12/25 03:56:49;;;;;;;0.40;0.40;;;16.90;47.90;;;;;;5168428;27;45312;-63
2023/12/25 03:59:16;;;;;;;0.30;0.30;;;16.90;48.00;;;;;;5168772;27;45354;-63
2023/12/25 04:01:42;;;;;;;0.22;0.22;;;16.90;48.00;;;;;;5168525;27;46433;-63
2023/12/25 04:04:09;;;;;;;0.40;0.40;;;16.90;47.90;;;;;;5168335;27;45407;-63
2023/12/25 04:06:36;;;;;;;0.25;0.25;;;16.90;47.90;;;;;;5168154;27;45383;-63
2023/12/25 04:09:05;;;;;;;0.68;0.30;;;16.90;48.00;;;;;;5168401;27;45338;-64
2023/12/25 04:11:32;;;;;;;0.30;0.30;;;16.90;47.90;;;;;;5168225;27;46395;-63
2023/12/25 04:13:59;;;;;;;0.38;0.38;;;16.90;47.80;;;;;;5168225;27;45375;-63
2023/12/25 04:16:27;;;;;;;0.30;0.30;;;17.00;47.80;;;;;;5168084;27;45375;-65
2023/12/25 04:18:54;;;;;;;0.20;0.20;;;17.00;47.60;;;;;;5168644;27;45168;-64
2023/12/25 04:21:24;;;;;;;0.35;0.30;;;17.10;47.50;;;;;;5168111;27;45342;-64
2023/12/25 04:23:51;;;;;;;0.32;0.28;;;17.20;47.30;;;;;;5148616;27;45430;-64
2023/12/25 04:26:19;;;;;;;0.30;0.30;;;17.30;47.20;;;;;;5147390;27;45394;-63
2023/12/25 04:28:47;;;;;;;0.30;0.30;;;17.40;47.00;;;;;;5147458;27;45260;-65
2023/12/25 04:31:13;;;;;;;0.55;0.28;;;17.50;46.80;;;;;;5146871;27;45347;-64
2023/12/25 04:33:40;;;;;;;0.40;0.40;;;17.60;46.70;;;;;;5147134;27;45278;-63
2023/12/25 04:36:12;;;;;;;0.50;0.50;;;17.70;46.50;;;;;;5147060;27;45456;-64
2023/12/25 04:38:39;;;;;;;0.32;0.32;;;17.70;46.30;;;;;;5147198;27;45475;-64
2023/12/25 04:41:06;;;;;;;0.38;0.38;;;17.80;46.10;;;;;;5127003;27;46263;-63
2023/12/25 04:43:34;;;;;;;0.22;0.22;;;17.90;46.00;;;;;;5126101;27;45442;-64
2023/12/25 04:46:03;;;;;;;0.20;0.20;;;17.90;45.90;;;;;;5128298;27;45345;-64
2023/12/25 04:48:30;;;;;;;0.30;0.30;;;18.00;45.70;;;;;;5129797;27;45343;-64
2023/12/25 04:50:57;;;;;;;0.52;0.43;;;18.10;45.60;;;;;;5126852;27;45408;-64
2023/12/25 04:53:24;;;;;;;0.30;0.30;;;18.10;45.50;;;;;;5129550;27;45269;-63
2023/12/25 04:55:51;;;;;;;0.40;0.40;;;18.20;45.40;;;;;;5120853;27;45311;-63
2023/12/25 04:58:18;;;;;;;0.30;0.30;;;18.20;45.30;;;;;;5129771;27;45403;-64
2023/12/25 05:00:46;;;;;;;0.30;0.30;;;18.30;45.20;;;;;;5129238;27;46895;-64
2023/12/25 05:03:13;;;;;;;0.30;0.30;;;18.30;45.20;;;;;;5129385;27;45398;-64
2023/12/25 05:05:40;;;;;;;0.32;0.32;;;18.30;45.10;;;;;;5129396;27;45316;-64
2023/12/25 05:08:07;;;;;;;0.28;0.28;;;18.40;45.10;;;;;;5129684;27;45353;-64
2023/12/25 05:10:33;;;;;;;0.20;0.20;;;18.40;45.00;;;;;;5129089;27;46379;-63
2023/12/25 05:13:00;;;;;;;0.50;0.50;;;18.40;44.90;;;;;;5129540;27;45318;-63
2023/12/25 05:15:28;;;;;;;1.77;0.38;;;18.40;45.40;;;;;;5129237;27;45409;-63
2023/12/25 05:17:56;;;;;;;0.40;0.30;;;18.50;44.90;;;;;;5129446;27;45558;-63
2023/12/25 05:20:23;;;;;;;0.52;0.30;;;18.50;44.80;;;;;;5129101;27;47410;-63
2023/12/25 05:22:49;;;;;;;0.50;0.50;;;18.50;44.80;;;;;;5132444;27;45371;-63
2023/12/25 05:25:16;;;;;;;0.20;0.20;;;18.50;44.70;;;;;;5149873;27;45377;-64
2023/12/25 05:27:43;;;;;;;0.45;0.40;;;18.50;44.70;;;;;;5149910;27;45413;-63
2023/12/25 05:30:11;;;;;;;0.30;0.30;;;18.50;44.60;;;;;;5149731;27;47428;-63
2023/12/25 05:32:38;;;;;;;0.50;0.50;;;18.60;44.70;;;;;;5149567;27;45316;-63
2023/12/25 05:35:07;;;;;;;0.40;0.40;;;18.60;44.50;;;;;;5149746;27;45416;-63
2023/12/25 05:37:34;;;;;;;0.32;0.32;;;18.60;44.50;;;;;;5149763;27;45415;-63
2023/12/25 05:40:00;;;;;;;0.22;0.22;;;18.60;44.40;;;;;;5159539;27;46380;-63
2023/12/25 05:42:27;;;;;;;0.38;0.38;;;18.70;44.40;;;;;;5170539;27;45289;-64
2023/12/25 05:44:54;;;;;;;0.30;0.30;;;18.60;44.40;;;;;;5170686;27;45306;-63
2023/12/25 05:47:21;;;;;;;0.30;0.30;;;18.70;44.40;;;;;;5170683;27;45415;-63
2023/12/25 05:49:48;;;;;;;0.20;0.20;;;18.70;44.40;;;;;;5170272;27;45956;-63
2023/12/25 05:52:16;;;;;;;0.47;0.45;;;18.70;44.30;;;;;;5170388;27;45178;-63
2023/12/25 05:54:43;;;;;;;0.40;0.40;;;18.70;44.30;;;;;;5170672;27;45309;-64
2023/12/25 05:57:11;;;;;;;0.35;0.35;;;18.80;44.30;;;;;;5170436;27;45425;-63
2023/12/25 05:59:38;;;;;;;0.30;0.30;;;18.70;44.30;;;;;;5170376;27;46818;-63
2023/12/25 06:02:05;;;;;;;0.40;0.40;;;18.80;44.30;;;;;;5167757;27;45360;-63
2023/12/25 06:04:32;;;;;;;0.30;0.30;;;18.80;44.20;;;;;;5170370;27;45368;-63
2023/12/25 06:06:59;;;;;;;0.40;0.40;;;18.80;44.20;;;;;;5170399;27;45239;-63
2023/12/25 06:09:27;;;;;;;0.40;0.40;;;18.80;44.20;;;;;;5169850;27;46656;-63
2023/12/25 06:11:54;;;;;;;0.40;0.40;;;18.80;44.20;;;;;;5169963;27;45376;-63
2023/12/25 06:14:20;;;;;;;0.40;0.40;;;18.80;44.10;;;;;;5170094;27;45312;-63
2023/12/25 06:16:47;;;;;;;0.30;0.30;;;18.80;44.10;;;;;;5170265;27;45464;-65
2023/12/25 06:19:14;;;;;;;0.60;0.40;;;18.90;44.10;;;;;;5169907;27;45322;-64
2023/12/25 06:21:41;;;;;;;0.40;0.40;;;18.90;44.10;;;;;;5168960;27;45491;-63
2023/12/25 06:24:08;;;;;;;0.57;0.20;;;18.90;44.10;;;;;;5149278;27;45403;-64
2023/12/25 06:26:36;;;;;;;0.55;0.50;;;18.90;44.60;;;;;;5149058;27;45426;-64
2023/12/25 06:29:03;;;;;;;0.40;0.40;;;18.90;44.00;;;;;;5148833;27;46329;-63
2023/12/25 06:31:30;;;;;;;0.40;0.40;;;18.90;43.90;;;;;;5148589;27;45336;-63
2023/12/25 06:33:57;;;;;;;0.28;0.28;;;19.00;44.50;;;;;;5148866;27;45305;-64
2023/12/25 06:36:23;;;;;;;0.40;0.40;;;19.00;43.90;;;;;;5148795;27;45466;-63
2023/12/25 06:38:50;;;;;;;0.30;0.30;;;19.00;43.90;;;;;;5148360;27;46727;-64
2023/12/25 06:41:17;;;;;;;0.20;0.20;;;19.00;43.80;;;;;;5145978;27;45355;-63
2023/12/25 06:43:45;;;;;;;0.30;0.30;;;19.00;43.80;;;;;;5148765;27;45348;-64
2023/12/25 06:46:13;;;;;;;0.30;0.30;;;19.00;43.80;;;;;;5148660;27;45389;-63
2023/12/25 06:48:39;;;;;;;0.22;0.22;;;19.00;43.70;;;;;;5148376;27;46468;-64
2023/12/25 06:51:08;;;;;;;0.40;0.40;;;19.00;43.70;;;;;;5163829;27;45323;-64
2023/12/25 06:53:35;;;;;;;0.30;0.30;;;19.00;43.70;;;;;;5169413;27;45400;-64
2023/12/25 06:56:02;;;;;;;0.50;0.40;;;19.00;43.70;;;;;;5169754;27;45414;-64
2023/12/25 06:58:29;;;;;;;0.40;0.40;;;19.00;43.60;;;;;;5169174;27;47559;-64
2023/12/25 07:00:59;;;;;;;0.30;0.30;;;19.00;43.60;;;;;;5169553;27;45508;-64
2023/12/25 07:03:26;;;;;;;0.22;0.22;;;19.00;43.60;;;;;;5169651;27;45532;-64
2023/12/25 07:05:53;;;;;;;0.55;0.40;;;19.00;43.50;;;;;;5169410;27;45384;-64
2023/12/25 07:08:19;;;;;;;0.30;0.30;;;19.10;43.60;;;;;;5168315;27;46648;-64
2023/12/25 07:10:46;;;;;;;0.30;0.30;;;19.00;43.50;;;;;;5169318;27;45280;-64
2023/12/25 07:13:14;;;;;;;0.63;0.30;;;19.10;43.50;;;;;;5169345;27;45263;-64
2023/12/25 07:15:41;;;;;;;0.25;0.25;;;19.10;43.50;;;;;;5169263;27;45317;-64
2023/12/25 07:18:09;;;;;;;0.50;0.40;;;19.10;43.50;;;;;;5169063;27;45295;-65
2023/12/25 07:20:36;;;;;;;0.40;0.40;;;19.10;43.50;;;;;;5169074;27;45361;-64
2023/12/25 07:23:02;;;;;;;0.25;0.25;;;19.10;43.50;;;;;;5156528;27;45422;-64
2023/12/25 07:25:29;;;;;;;0.30;0.30;;;19.10;43.60;;;;;;5148049;27;45410;-65
2023/12/25 07:27:57;;;;;;;0.40;0.40;;;19.10;43.60;;;;;;5147808;27;45583;-64
2023/12/25 07:30:24;;;;;;;1.02;0.50;;;19.10;43.60;;;;;;5148199;27;45444;-64
2023/12/25 07:32:50;;;;;;;0.32;0.32;;;19.10;43.60;;;;;;5147985;27;45321;-64
2023/12/25 07:35:20;;;;;;;0.30;0.30;;;19.10;43.60;;;;;;5148076;27;45403;-65
2023/12/25 07:37:48;;;;;;;0.32;0.30;;;19.10;43.60;;;;;;5147621;27;46659;-65
2023/12/25 07:40:15;;;;;;;0.30;0.30;;;19.10;43.60;;;;;;5147297;27;45358;-65
2023/12/25 07:42:41;;;;;;;0.40;0.32;;;19.10;43.60;;;;;;5148162;27;45272;-65
2023/12/25 07:45:10;;;;;;;0.40;0.40;;;19.10;43.60;;;;;;5145143;27;45299;-64
2023/12/25 07:47:37;;;;;;;0.30;0.30;;;19.10;44.10;;;;;;5147792;27;45623;-64
2023/12/25 07:50:04;;;;;;;0.40;0.40;;;19.10;43.50;;;;;;5156308;27;45407;-64
2023/12/25 07:52:33;;;;;;;0.30;0.30;;;19.10;43.50;;;;;;5168955;27;45294;-65
2023/12/25 07:54:59;;;;;;;0.20;0.20;;;19.10;43.50;;;;;;5168772;27;45305;-64
2023/12/25 07:57:26;;;;;;;0.50;0.50;;;19.10;43.50;;;;;;5168555;27;45496;-64
2023/12/25 07:59:53;;;;;;;0.93;0.50;;;19.10;43.50;;;;;;5168394;27;45306;-64
2023/12/25 08:02:20;;;;;;;0.30;0.30;;;19.10;43.50;;;;;;5168610;27;45415;-65
2023/12/25 08:04:47;;;;;;;0.43;0.43;;;19.10;43.50;;;;;;5168835;27;45437;-63
2023/12/25 08:07:14;;;;;;;0.28;0.28;;;19.10;43.50;;;;;;5168208;27;46262;-63
2023/12/25 08:09:42;;;;;;;0.30;0.30;;;19.20;43.50;;;;;;5168271;27;45197;-63
2023/12/25 08:12:09;;;;;;;0.43;0.30;;;19.10;44.10;;;;;;5168447;27;45413;-63
2023/12/25 08:14:35;;;;;;;0.35;0.30;;;19.10;43.50;;;;;;5168668;27;45346;-64
2023/12/25 08:17:02;;;;;;;0.40;0.40;;;19.10;43.50;;;;;;5168270;27;46783;-63
2023/12/25 08:19:29;;;;;;;0.32;0.30;;;19.20;43.50;;;;;;5169863;27;45317;-65
2023/12/25 08:21:56;;;;;;;0.45;0.40;;;19.20;43.50;;;;;;5169086;27;45259;-65
2023/12/25 08:24:25;;;;;;;0.38;0.38;;;19.20;43.50;;;;;;5151250;27;45275;-65
2023/12/25 08:26:53;;;;;;;1.63;0.40;;;19.20;43.50;;;;;;5150803;27;45381;-65
2023/12/25 08:29:20;;;;;;;0.40;0.40;;;19.20;43.50;;;;;;5150739;27;45338;-65
2023/12/25 08:31:46;;;;;;;0.98;0.50;;;19.20;43.50;;;;;;5150765;27;45326;-65
2023/12/25 08:34:13;;;;;;;0.40;0.40;;;19.20;43.50;;;;;;5151039;27;45411;-65
2023/12/25 08:36:40;;;;;;;0.35;0.35;;;19.20;43.50;;;;;;5150471;27;46384;-65
2023/12/25 08:39:06;;;;;;;0.40;0.40;;;19.20;43.50;;;;;;5150460;27;45140;-66
2023/12/25 08:41:33;;;;;;;0.40;0.40;;;19.20;43.50;;;;;;5150537;27;45361;-65
2023/12/25 08:44:01;;;;;;;0.20;0.20;;;19.20;43.50;;;;;;5150647;27;45487;-64
2023/12/25 08:46:28;;;;;;;0.80;0.40;;;19.10;43.50;;;;;;5150324;27;46364;-65
2023/12/25 08:48:55;;;;;;;0.20;0.20;;;19.20;43.50;;;;;;5150709;27;45382;-64
2023/12/25 08:51:22;;;;;;;0.45;0.30;;;19.20;43.60;;;;;;5170786;27;45486;-65
2023/12/25 08:53:49;;;;;;;0.30;0.30;;;19.20;43.50;;;;;;5171899;27;45435;-65
2023/12/25 08:56:24;;;;;;;0.30;0.30;;;19.20;43.50;;;;;;5171223;27;45311;-65
2023/12/25 08:58:51;;;;;;;0.45;0.45;;;19.20;43.50;;;;;;5171452;27;45319;-66
2023/12/25 09:01:19;;;;;;;0.30;0.30;;;19.20;43.50;;;;;;5171334;27;45242;-64
2023/12/25 09:03:46;;;;;;;0.50;0.50;;;19.20;44.10;;;;;;5171644;27;45589;-65
2023/12/25 09:06:13;;;;;;;0.57;0.32;;;19.20;43.50;;;;;;5171123;27;45793;-64
2023/12/25 09:08:40;;;;;;;0.30;0.30;;;19.20;43.50;;;;;;5171198;27;45323;-65
2023/12/25 09:11:08;;;;;;;0.25;0.25;;;19.20;43.50;;;;;;5171292;27;45261;-65
2023/12/25 09:13:35;;;;;;;0.43;0.43;;;19.20;43.40;;;;;;5171403;27;45398;-65
2023/12/25 09:16:02;;;;;;;0.40;0.40;;;19.20;43.40;;;;;;5171008;27;45407;-64
2023/12/25 09:18:30;;;;;;;0.50;0.50;;;19.20;43.40;;;;;;5170982;27;45353;-64
2023/12/25 09:20:57;;;;;;;0.95;0.50;;;19.30;43.50;;;;;;5171150;27;45294;-65
2023/12/25 09:23:24;;;;;;;0.55;0.30;;;19.30;43.40;;;;;;5155573;27;45266;-65
2023/12/25 09:25:51;;;;;;;0.30;0.30;;;19.30;43.40;;;;;;5149682;27;47280;-65
2023/12/25 09:28:18;;;;;;;0.30;0.30;;;19.30;43.30;;;;;;5149953;27;45147;-65
2023/12/25 09:30:45;;;;;;;0.20;0.20;;;19.30;43.30;;;;;;5149452;27;45332;-65
2023/12/25 09:33:11;;;;;;;0.50;0.32;;;19.30;43.30;;;;;;5150183;27;45587;-65
2023/12/25 09:35:40;;;;;;;1.35;0.38;;;19.30;43.30;;;;;;5149446;27;45424;-66
2023/12/25 09:38:07;;;;;;;0.40;0.40;;;19.40;43.30;;;;;;5149650;27;45417;-65
2023/12/25 09:40:34;;;;;;;0.32;0.32;;;19.40;43.20;;;;;;5134696;27;45388;-65
2023/12/25 09:43:01;;;;;;;0.40;0.32;;;19.40;43.20;;;;;;5129400;27;45381;-64
2023/12/25 09:45:28;;;;;;;0.40;0.40;;;19.40;43.20;;;;;;5128856;27;46639;-65
2023/12/25 09:47:55;;;;;;;0.30;0.30;;;19.40;43.20;;;;;;5126374;27;45424;-65
2023/12/25 09:50:22;;;;;;;0.40;0.40;;;19.50;43.30;;;;;;5128844;27;45367;-66
2023/12/25 09:52:50;;;;;;;0.20;0.20;;;19.50;43.20;;;;;;5129155;27;45180;-65
2023/12/25 09:55:17;;;;;;;0.20;0.20;;;19.50;43.30;;;;;;5128767;27;45326;-65
2023/12/25 09:57:44;;;;;;;0.32;0.32;;;19.50;43.20;;;;;;5128539;27;45515;-66
2023/12/25 10:00:11;;;;;;;0.40;0.40;;;19.50;43.20;;;;;;5128766;27;45343;-64
2023/12/25 10:02:41;;;;;;;0.40;0.40;;;19.60;43.20;;;;;;5128904;27;45407;-64
2023/12/25 10:05:08;;;;;;;1.45;0.40;;;19.60;43.10;;;;;;5128377;27;46707;-64
2023/12/25 10:07:36;;;;;;;0.38;0.30;;;19.60;43.10;;;;;;5128305;27;45376;-64
2023/12/25 10:10:05;;;;;;;0.20;0.20;;;19.60;43.00;;;;;;5128555;27;45340;-63
2023/12/25 10:12:32;;;;;;;0.50;0.50;;;19.70;43.00;;;;;;5128332;27;45323;-63
2023/12/25 10:14:58;;;;;;;0.63;0.40;;;19.70;43.10;;;;;;5128062;27;46282;-63
2023/12/25 10:17:25;;;;;;;0.30;0.30;;;19.70;43.00;;;;;;5128137;27;45511;-64
2023/12/25 10:19:54;;;;;;;0.25;0.25;;;19.80;42.90;;;;;;5128334;27;45289;-63
2023/12/25 10:22:30;;;;;;;0.40;0.40;;;19.80;42.90;;;;;;5128525;27;45261;-64
2023/12/25 10:25:09;;;;;;;0.52;0.52;;;19.90;42.90;;;;;;5127870;27;46698;-64
2023/12/25 10:27:37;;;;;;;0.35;0.35;;;19.90;42.80;;;;;;5128192;27;45432;-64
2023/12/25 10:30:04;;;;;;;1.00;0.40;;;19.90;42.80;;;;;;5128110;27;45192;-63
2023/12/25 10:32:32;;;;;;;0.43;0.40;;;19.90;42.80;;;;;;5128442;27;45438;-64
2023/12/25 10:35:11;;;;;;;1.00;0.32;;;20.00;43.40;;;;;;5127944;27;47548;-64
2023/12/25 10:37:39;;;;;;;0.30;0.30;;;19.90;42.70;;;;;;5127873;27;45394;-64
2023/12/25 10:40:20;;;;;;;0.30;0.30;;;19.90;42.80;;;;;;5138612;27;45264;-64
2023/12/25 10:42:48;;;;;;;0.35;0.30;;;19.90;42.90;;;;;;5147826;27;45544;-64
2023/12/25 10:45:18;;;;;;;0.20;0.20;;;19.90;42.90;;;;;;5148823;27;47744;-63
2023/12/25 10:47:45;;;;;;;0.30;0.30;;;19.90;43.00;;;;;;5148596;27;45286;-64
2023/12/25 10:50:12;;;;;;;0.50;0.50;;;19.90;43.10;;;;;;5158773;27;45392;-64
2023/12/25 10:52:39;;;;;;;0.40;0.40;;;19.80;43.10;;;;;;5169543;27;45410;-66
2023/12/25 10:55:07;;;;;;;0.50;0.38;;;19.90;43.20;;;;;;5169311;27;45436;-64
2023/12/25 10:57:35;;;;;;;0.22;0.22;;;19.90;43.20;;;;;;5169380;27;45413;-64
2023/12/25 11:00:03;;;;;;;0.35;0.35;;;19.90;43.20;;;;;;5168857;27;45433;-63
2023/12/25 11:02:30;;;;;;;0.20;0.20;;;19.90;43.20;;;;;;5169690;27;45230;-64
2023/12/25 11:04:57;;;;;;;0.45;0.30;;;19.90;43.20;;;;;;5169156;27;45257;-63
2023/12/25 11:07:24;;;;;;;0.73;0.52;;;19.90;43.20;;;;;;5169368;27;45336;-62
2023/12/25 11:09:52;;;;;;;0.40;0.40;;;19.90;43.90;;;;;;5169502;27;45242;-63
2023/12/25 11:12:19;;;;;;;0.30;0.30;;;19.90;43.20;;;;;;5169185;27;45190;-63
2023/12/25 11:14:47;;;;;;;0.30;0.30;;;19.90;43.90;;;;;;5169051;27;45333;-62
2023/12/25 11:17:14;;;;;;;0.30;0.30;;;19.90;43.90;;;;;;5169097;27;45428;-62
2023/12/25 11:19:41;;;;;;;0.30;0.30;;;19.90;43.30;;;;;;5169279;27;45356;-63
2023/12/25 11:22:28;;;;;;;0.38;0.38;;;19.90;43.40;;;;;;5173842;27;45285;-63
2023/12/25 11:24:55;;;;;;;0.47;0.30;;;19.80;43.50;;;;;;5190055;27;46449;-63
2023/12/25 11:27:21;;;;;;;0.50;0.45;;;19.80;43.60;;;;;;5190096;27;45248;-62
2023/12/25 11:29:49;;;;;;;0.70;0.30;;;19.80;43.60;;;;;;5190476;27;45302;-63
2023/12/25 11:32:17;;;;;;;0.32;0.32;;;19.80;43.50;;;;;;5190199;27;45437;-63
2023/12/25 11:34:48;;;;;;;0.63;0.30;;;19.80;43.60;;;;;;5190032;27;46379;-63
2023/12/25 11:37:19;;;;;;;0.60;0.60;;;19.80;43.60;;;;;;5190086;27;45301;-63
2023/12/25 11:39:52;;;;;;;0.30;0.30;;;19.80;43.60;;;;;;5181707;27;45309;-63
2023/12/25 11:42:19;;;;;;;0.30;0.30;;;19.80;43.60;;;;;;5168985;27;45441;-62
2023/12/25 11:44:49;;;;;;;0.40;0.30;;;19.80;43.60;;;;;;5168534;27;46488;-62
2023/12/25 11:47:26;;;;;;;0.20;0.20;;;19.80;43.60;;;;;;5168763;27;45570;-63
2023/12/25 11:49:54;;;;;;;0.10;0.10;;;19.90;43.60;;;;;;5161709;27;45359;-62
2023/12/25 11:52:45;;;;;;;0.30;0.30;;;19.90;43.50;;;;;;5147658;27;45553;-63
2023/12/25 11:55:14;;;;;;;0.20;0.20;;;20.00;43.50;;;;;;5150052;27;45529;-63
2023/12/25 11:57:42;;;;;;;0.30;0.30;;;20.20;43.20;;;;;;5151418;27;45284;-64
2023/12/25 12:00:15;;;;;;;0.63;0.30;;;20.20;42.80;;;;;;5151495;27;45540;-63
2023/12/25 12:02:43;;;;;;;0.93;0.40;;;20.20;42.80;;;;;;5151389;27;45304;-64
2023/12/25 12:05:10;;;;;;;0.43;0.32;;;20.20;43.00;;;;;;5150814;27;46632;-64
2023/12/25 12:07:37;;;;;;;0.73;0.30;;;20.20;43.10;;;;;;5151392;27;45394;-64
2023/12/25 12:10:04;;;;;;;0.20;0.20;;;20.20;43.20;;;;;;5151181;27;45252;-64
2023/12/25 12:12:30;;;;;;;0.38;0.38;;;20.10;43.20;;;;;;5151294;27;45319;-64
2023/12/25 12:14:57;;;;;;;0.30;0.30;;;20.10;43.30;;;;;;5151031;27;46354;-64
2023/12/25 12:17:25;;;;;;;0.35;0.35;;;20.10;43.40;;;;;;5151012;27;45264;-64
2023/12/25 12:19:53;;;;;;;0.30;0.30;;;20.10;43.40;;;;;;5151091;27;45358;-64
2023/12/25 12:22:20;;;;;;;0.40;0.30;;;20.10;43.40;;;;;;5157396;27;45350;-64
2023/12/25 12:24:46;;;;;;;0.93;0.30;;;20.10;43.30;;;;;;5171805;27;45319;-64
2023/12/25 12:27:13;;;;;;;0.30;0.30;;;20.20;43.30;;;;;;5171824;27;45252;-65
2023/12/25 12:29:39;;;;;;;0.57;0.20;;;20.20;43.30;;;;;;5172223;27;45433;-64
2023/12/25 12:32:07;;;;;;;0.30;0.20;;;20.10;43.30;;;;;;5172269;27;45269;-65
2023/12/25 12:34:35;;;;;;;0.28;0.28;;;20.20;43.30;;;;;;5171437;27;45704;-64
2023/12/25 12:37:03;;;;;;;0.45;0.30;;;20.20;43.30;;;;;;5171655;27;45240;-65
2023/12/25 12:39:30;;;;;;;0.20;0.20;;;20.20;43.40;;;;;;5171714;27;45570;-64
2023/12/25 12:41:57;;;;;;;0.85;0.20;;;20.20;43.40;;;;;;5171813;27;45370;-65
2023/12/25 12:44:24;;;;;;;0.30;0.30;;;20.20;43.40;;;;;;5171244;27;46696;-64
2023/12/25 12:46:51;;;;;;;0.40;0.40;;;20.20;43.40;;;;;;5171390;27;45358;-64
2023/12/25 12:49:19;;;;;;;0.30;0.30;;;20.20;43.40;;;;;;5169153;27;45313;-63